createdAt,value
2017-05-17T00:00:20.613Z,1022.21
2017-05-17T00:01:33.164Z,1022.25
2017-05-17T00:02:45.718Z,1022.25
2017-05-17T00:03:58.282Z,1022.2
2017-05-17T00:05:10.527Z,1022.21
2017-05-17T00:06:22.729Z,1022.21
2017-05-17T00:07:35.253Z,1022.19
2017-05-17T00:08:48.094Z,1022.2
2017-05-17T00:10:00.618Z,1022.2
2017-05-17T00:11:13.135Z,1022.18
2017-05-17T00:12:25.690Z,1022.12
2017-05-17T00:13:38.232Z,1022.13
2017-05-17T00:14:50.793Z,1022.15
2017-05-17T00:16:03.372Z,1022.13
2017-05-17T00:17:15.617Z,1022.12
2017-05-17T00:18:28.165Z,1022.13
2017-05-17T00:19:41.012Z,1022.11
2017-05-17T00:20:53.574Z,1022.1
2017-05-17T00:22:06.107Z,1022.1
2017-05-17T00:23:18.648Z,1022.06
2017-05-17T00:24:31.194Z,1022.11
2017-05-17T00:25:43.736Z,1022.08
2017-05-17T00:26:56.266Z,1022.11
2017-05-17T00:28:08.807Z,1022.07
2017-05-17T00:29:21.049Z,1022.11
2017-05-17T00:30:33.891Z,1022.07
2017-05-17T00:31:46.420Z,1022.06
2017-05-17T00:32:58.961Z,1021.99
2017-05-17T00:34:11.515Z,1022.02
2017-05-17T00:35:24.058Z,1022.02
2017-05-17T00:36:36.582Z,1022.01
2017-05-17T00:37:48.815Z,1022.05
2017-05-17T00:39:01.362Z,1022.03
2017-05-17T00:40:13.888Z,1022.03
2017-05-17T00:41:26.128Z,1022.02
2017-05-17T00:42:38.685Z,1022.01
2017-05-17T00:43:51.225Z,1022.04
2017-05-17T00:45:03.762Z,1022.02
2017-05-17T00:46:16.274Z,1021.97
2017-05-17T00:47:28.812Z,1021.99
2017-05-17T00:48:41.365Z,1022.02
2017-05-17T00:49:53.908Z,1022.02
2017-05-17T00:51:06.146Z,1022.03
2017-05-17T00:52:18.672Z,1022.03
2017-05-17T00:53:30.917Z,1022.06
2017-05-17T00:54:43.430Z,1022.03
2017-05-17T00:55:56.011Z,1022.01
2017-05-17T00:57:08.259Z,1022.01
2017-05-17T00:58:20.797Z,1021.98
2017-05-17T00:59:33.321Z,1022
2017-05-17T01:00:45.859Z,1021.98
2017-05-17T01:01:58.091Z,1021.96
2017-05-17T01:03:10.312Z,1021.94
2017-05-17T01:04:22.855Z,1021.89
2017-05-17T01:05:35.429Z,1021.89
2017-05-17T01:06:47.976Z,1021.91
2017-05-17T01:08:00.520Z,1021.9
2017-05-17T01:09:12.784Z,1021.87
2017-05-17T01:10:25.088Z,1021.85
2017-05-17T01:11:37.638Z,1021.83
2017-05-17T01:12:50.198Z,1021.8
2017-05-17T01:14:02.425Z,1021.85
2017-05-17T01:15:14.969Z,1021.79
2017-05-17T01:16:27.493Z,1021.78
2017-05-17T01:17:39.444Z,1021.74
2017-05-17T01:18:51.982Z,1021.71
2017-05-17T01:20:04.532Z,1021.75
2017-05-17T01:21:17.073Z,1021.7
2017-05-17T01:22:29.619Z,1021.69
2017-05-17T01:23:42.119Z,1021.7
2017-05-17T01:24:54.410Z,1021.68
2017-05-17T01:26:06.934Z,1021.68
2017-05-17T01:27:19.173Z,1021.7
2017-05-17T01:28:31.769Z,1021.68
2017-05-17T01:29:44.297Z,1021.66
2017-05-17T01:30:56.823Z,1021.64
2017-05-17T01:32:09.060Z,1021.63
2017-05-17T01:33:21.606Z,1021.63
2017-05-17T01:34:34.157Z,1021.59
2017-05-17T01:35:46.403Z,1021.61
2017-05-17T01:36:58.966Z,1021.59
2017-05-17T01:38:11.524Z,1021.58
2017-05-17T01:39:24.035Z,1021.52
2017-05-17T01:40:36.232Z,1021.56
2017-05-17T01:41:48.837Z,1021.54
2017-05-17T01:43:01.095Z,1021.5
2017-05-17T01:44:13.347Z,1021.51
2017-05-17T01:45:25.886Z,1021.49
2017-05-17T01:46:38.436Z,1021.48
2017-05-17T01:47:50.967Z,1021.45
2017-05-17T01:49:03.512Z,1021.48
2017-05-17T01:50:15.755Z,1021.45
2017-05-17T01:51:28.266Z,1021.46
2017-05-17T01:52:40.792Z,1021.44
2017-05-17T01:53:53.341Z,1021.43
2017-05-17T01:55:05.908Z,1021.42
2017-05-17T01:56:18.450Z,1021.36
2017-05-17T01:57:31.295Z,1021.36
2017-05-17T01:58:43.846Z,1021.36
2017-05-17T01:59:56.396Z,1021.34
2017-05-17T02:01:08.588Z,1021.34
2017-05-17T02:02:21.113Z,1021.29
2017-05-17T02:03:33.655Z,1021.32
2017-05-17T02:04:46.200Z,1021.3
2017-05-17T02:05:58.774Z,1021.31
2017-05-17T02:07:11.321Z,1021.27
2017-05-17T02:08:24.089Z,1021.28
2017-05-17T02:09:36.629Z,1021.26
2017-05-17T02:10:49.135Z,1021.25
2017-05-17T02:12:01.378Z,1021.25
2017-05-17T02:13:13.946Z,1021.26
2017-05-17T02:14:26.467Z,1021.27
2017-05-17T02:15:39.034Z,1021.24
2017-05-17T02:16:51.569Z,1021.25
2017-05-17T02:18:03.802Z,1021.24
2017-05-17T02:19:16.348Z,1021.22
2017-05-17T02:20:28.897Z,1021.2
2017-05-17T02:21:41.439Z,1021.18
2017-05-17T02:22:53.994Z,1021.24
2017-05-17T02:24:06.537Z,1021.27
2017-05-17T02:25:19.334Z,1021.29
2017-05-17T02:26:31.897Z,1021.32
2017-05-17T02:27:44.450Z,1021.28
2017-05-17T02:28:57.002Z,1021.28
2017-05-17T02:30:09.239Z,1021.27
2017-05-17T02:31:21.785Z,1021.27
2017-05-17T02:32:34.309Z,1021.26
2017-05-17T02:33:46.859Z,1021.23
2017-05-17T02:34:59.397Z,1021.24
2017-05-17T02:36:11.937Z,1021.19
2017-05-17T02:37:24.522Z,1021.23
2017-05-17T02:38:36.756Z,1021.2
2017-05-17T02:39:49.261Z,1021.19
2017-05-17T02:41:02.095Z,1021.18
2017-05-17T02:42:14.631Z,1021.22
2017-05-17T02:43:26.869Z,1021.24
2017-05-17T02:44:39.409Z,1021.21
2017-05-17T02:45:51.940Z,1021.18
2017-05-17T02:47:04.463Z,1021.22
2017-05-17T02:48:17.021Z,1021.19
2017-05-17T02:49:29.566Z,1021.18
2017-05-17T02:50:42.137Z,1021.2
2017-05-17T02:51:54.335Z,1021.22
2017-05-17T02:53:06.561Z,1021.18
2017-05-17T02:54:19.085Z,1021.18
2017-05-17T02:55:31.606Z,1021.19
2017-05-17T02:56:43.853Z,1021.19
2017-05-17T02:57:56.387Z,1021.2
2017-05-17T02:59:08.621Z,1021.14
2017-05-17T03:00:21.162Z,1021.16
2017-05-17T03:01:33.711Z,1021.17
2017-05-17T03:02:46.008Z,1021.17
2017-05-17T03:03:58.518Z,1021.16
2017-05-17T03:05:10.773Z,1021.19
2017-05-17T03:06:23.041Z,1021.14
2017-05-17T03:07:35.538Z,1021.14
2017-05-17T03:08:48.383Z,1021.1
2017-05-17T03:10:00.958Z,1021.14
2017-05-17T03:11:12.921Z,1021.1
2017-05-17T03:12:25.171Z,1021.11
2017-05-17T03:13:37.421Z,1021.09
2017-05-17T03:14:49.988Z,1021.08
2017-05-17T03:16:02.534Z,1021.05
2017-05-17T03:17:14.758Z,1021.07
2017-05-17T03:18:27.302Z,1021.07
2017-05-17T03:19:39.827Z,1021.01
2017-05-17T03:20:52.378Z,1020.97
2017-05-17T03:22:04.888Z,1020.98
2017-05-17T03:23:16.810Z,1021
2017-05-17T03:24:29.639Z,1021
2017-05-17T03:25:42.176Z,1020.99
2017-05-17T03:26:54.401Z,1021.02
2017-05-17T03:28:06.935Z,1021.01
2017-05-17T03:29:18.885Z,1021
2017-05-17T03:30:31.430Z,1020.99
2017-05-17T03:31:43.981Z,1021.02
2017-05-17T03:32:56.530Z,1021.02
2017-05-17T03:34:09.080Z,1021.05
2017-05-17T03:35:21.621Z,1021.05
2017-05-17T03:36:33.857Z,1021.02
2017-05-17T03:37:46.392Z,1021.06
2017-05-17T03:38:58.631Z,1021.06
2017-05-17T03:40:11.198Z,1021.07
2017-05-17T03:41:23.450Z,1021.09
2017-05-17T03:42:35.677Z,1021.07
2017-05-17T03:43:48.197Z,1021.1
2017-05-17T03:45:00.443Z,1021.16
2017-05-17T03:46:13.002Z,1021.1
2017-05-17T03:47:25.556Z,1021.12
2017-05-17T03:48:38.077Z,1021.11
2017-05-17T03:49:50.597Z,1021.11
2017-05-17T03:51:03.123Z,1021.09
2017-05-17T03:52:15.657Z,1021.08
2017-05-17T03:53:27.907Z,1021.03
2017-05-17T03:54:40.454Z,1021.04
2017-05-17T03:55:52.691Z,1021.02
2017-05-17T03:57:05.500Z,1020.99
2017-05-17T03:58:17.445Z,1021.03
2017-05-17T03:59:30.003Z,1021
2017-05-17T04:00:42.234Z,1021.02
2017-05-17T04:01:54.774Z,1021.01
2017-05-17T04:03:07.345Z,1021
2017-05-17T04:04:19.904Z,1020.98
2017-05-17T04:05:32.143Z,1020.98
2017-05-17T04:06:44.680Z,1021.01
2017-05-17T04:07:57.214Z,1020.97
2017-05-17T04:09:09.729Z,1020.98
2017-05-17T04:10:22.278Z,1020.97
2017-05-17T04:11:34.196Z,1020.96
2017-05-17T04:12:46.717Z,1021
2017-05-17T04:13:59.238Z,1020.99
2017-05-17T04:15:11.486Z,1020.97
2017-05-17T04:16:23.726Z,1020.97
2017-05-17T04:17:36.260Z,1020.97
2017-05-17T04:18:49.117Z,1020.96
2017-05-17T04:20:01.698Z,1020.98
2017-05-17T04:21:13.918Z,1020.95
2017-05-17T04:22:26.440Z,1020.98
2017-05-17T04:23:38.999Z,1020.94
2017-05-17T04:24:51.201Z,1020.9
2017-05-17T04:26:03.775Z,1020.92
2017-05-17T04:27:15.410Z,1020.88
2017-05-17T04:28:27.634Z,1020.89
2017-05-17T04:29:39.580Z,1020.9
2017-05-17T04:30:52.152Z,1020.85
2017-05-17T04:32:04.722Z,1020.89
2017-05-17T04:33:17.274Z,1020.87
2017-05-17T04:34:29.511Z,1020.83
2017-05-17T04:35:42.041Z,1020.85
2017-05-17T04:36:54.286Z,1020.8
2017-05-17T04:38:06.809Z,1020.83
2017-05-17T04:39:19.370Z,1020.84
2017-05-17T04:40:31.899Z,1020.84
2017-05-17T04:41:44.144Z,1020.83
2017-05-17T04:42:56.668Z,1020.83
2017-05-17T04:44:08.910Z,1020.79
2017-05-17T04:45:21.462Z,1020.79
2017-05-17T04:46:34.002Z,1020.79
2017-05-17T04:47:46.541Z,1020.78
2017-05-17T04:48:59.098Z,1020.77
2017-05-17T04:50:11.666Z,1020.74
2017-05-17T04:51:24.217Z,1020.81
2017-05-17T04:52:36.760Z,1020.79
2017-05-17T04:53:49.295Z,1020.79
2017-05-17T04:55:01.844Z,1020.8
2017-05-17T04:56:14.379Z,1020.78
2017-05-17T04:57:26.894Z,1020.77
2017-05-17T04:58:39.162Z,1020.79
2017-05-17T04:59:51.660Z,1020.79
2017-05-17T05:01:03.882Z,1020.79
2017-05-17T05:02:16.403Z,1020.8
2017-05-17T05:03:28.973Z,1020.8
2017-05-17T05:04:41.494Z,1020.82
2017-05-17T05:05:53.416Z,1020.77
2017-05-17T05:07:05.658Z,1020.78
2017-05-17T05:08:17.929Z,1020.8
2017-05-17T05:09:30.480Z,1020.79
2017-05-17T05:10:42.995Z,1020.8
2017-05-17T05:11:55.248Z,1020.79
2017-05-17T05:13:07.792Z,1020.76
2017-05-17T05:14:20.026Z,1020.7
2017-05-17T05:15:32.578Z,1020.76
2017-05-17T05:16:44.843Z,1020.75
2017-05-17T05:17:57.374Z,1020.78
2017-05-17T05:19:09.619Z,1020.75
2017-05-17T05:20:22.183Z,1020.69
2017-05-17T05:21:34.712Z,1020.68
2017-05-17T05:22:47.273Z,1020.69
2017-05-17T05:23:59.804Z,1020.7
2017-05-17T05:25:12.043Z,1020.73
2017-05-17T05:26:24.271Z,1020.74
2017-05-17T05:27:36.818Z,1020.74
2017-05-17T05:28:49.327Z,1020.77
2017-05-17T05:30:01.858Z,1020.76
2017-05-17T05:31:14.371Z,1020.78
2017-05-17T05:32:26.603Z,1020.76
2017-05-17T05:33:39.172Z,1020.71
2017-05-17T05:34:51.714Z,1020.74
2017-05-17T05:36:04.234Z,1020.68
2017-05-17T05:37:16.453Z,1020.72
2017-05-17T05:38:28.680Z,1020.69
2017-05-17T05:39:41.243Z,1020.68
2017-05-17T05:40:53.497Z,1020.65
2017-05-17T05:42:06.066Z,1020.69
2017-05-17T05:43:18.314Z,1020.71
2017-05-17T05:44:30.556Z,1020.65
2017-05-17T05:45:43.397Z,1020.69
2017-05-17T05:46:55.952Z,1020.65
2017-05-17T05:48:08.556Z,1020.67
2017-05-17T05:49:21.069Z,1020.65
2017-05-17T05:50:33.014Z,1020.64
2017-05-17T05:51:45.557Z,1020.62
2017-05-17T05:52:57.803Z,1020.62
2017-05-17T05:54:10.365Z,1020.61
2017-05-17T05:55:22.896Z,1020.6
2017-05-17T05:56:35.115Z,1020.66
2017-05-17T05:57:47.640Z,1020.62
2017-05-17T05:59:00.199Z,1020.66
2017-05-17T06:00:12.146Z,1020.66
2017-05-17T06:01:24.450Z,1020.67
2017-05-17T06:02:37.022Z,1020.62
2017-05-17T06:03:49.595Z,1020.66
2017-05-17T06:05:02.138Z,1020.63
2017-05-17T06:06:14.084Z,1020.65
2017-05-17T06:07:26.303Z,1020.68
2017-05-17T06:08:38.205Z,1020.68
2017-05-17T06:09:50.745Z,1020.63
2017-05-17T06:11:02.969Z,1020.64
2017-05-17T06:12:15.190Z,1020.62
2017-05-17T06:13:27.733Z,1020.62
2017-05-17T06:14:40.279Z,1020.65
2017-05-17T06:15:52.525Z,1020.67
2017-05-17T06:17:05.066Z,1020.76
2017-05-17T06:18:17.937Z,1020.72
2017-05-17T06:19:30.492Z,1020.71
2017-05-17T06:20:43.043Z,1020.64
2017-05-17T06:21:55.575Z,1020.64
2017-05-17T06:23:07.818Z,1020.62
2017-05-17T06:24:20.089Z,1020.66
2017-05-17T06:25:32.616Z,1020.65
2017-05-17T06:26:44.554Z,1020.9
2017-05-17T06:27:57.129Z,1020.91
2017-05-17T06:29:08.775Z,1020.98
2017-05-17T06:30:21.280Z,1021.02
2017-05-17T06:31:33.822Z,1021.07
2017-05-17T06:32:46.369Z,1021.03
2017-05-17T06:33:58.884Z,1020.95
2017-05-17T06:35:11.439Z,1020.94
2017-05-17T06:36:23.385Z,1020.91
2017-05-17T06:37:35.925Z,1020.91
2017-05-17T06:38:48.475Z,1020.93
2017-05-17T06:40:01.325Z,1020.96
2017-05-17T06:41:12.971Z,1020.95
2017-05-17T06:42:25.517Z,1020.96
2017-05-17T06:43:38.060Z,1020.94
2017-05-17T06:44:50.610Z,1020.9
2017-05-17T06:46:03.177Z,1020.96
2017-05-17T06:47:15.446Z,1020.96
2017-05-17T06:48:27.719Z,1020.95
2017-05-17T06:49:40.292Z,1020.93
2017-05-17T06:50:52.859Z,1020.98
2017-05-17T06:52:05.131Z,1020.97
2017-05-17T06:53:16.802Z,1020.94
2017-05-17T06:54:29.369Z,1020.9
2017-05-17T06:55:41.614Z,1020.89
2017-05-17T06:56:54.144Z,1020.83
2017-05-17T06:58:06.402Z,1020.7
2017-05-17T06:59:18.645Z,1020.72
2017-05-17T07:00:31.194Z,1020.67
2017-05-17T07:01:43.765Z,1020.65
2017-05-17T07:02:56.016Z,1020.64
2017-05-17T07:04:08.283Z,1020.61
2017-05-17T07:05:20.803Z,1020.59
2017-05-17T07:06:33.078Z,1020.6
2017-05-17T07:07:45.692Z,1020.55
2017-05-17T07:08:58.266Z,1020.49
2017-05-17T07:10:10.507Z,1020.46
2017-05-17T07:11:22.762Z,1020.44
2017-05-17T07:12:35.351Z,1020.38
2017-05-17T07:13:47.583Z,1020.4
2017-05-17T07:15:00.145Z,1020.41
2017-05-17T07:16:12.688Z,1020.36
2017-05-17T07:17:25.244Z,1020.39
2017-05-17T07:18:37.779Z,1020.34
2017-05-17T07:19:50.309Z,1020.38
2017-05-17T07:21:02.847Z,1020.39
2017-05-17T07:22:15.403Z,1020.33
2017-05-17T07:23:27.925Z,1020.27
2017-05-17T07:24:40.465Z,1020.32
2017-05-17T07:25:52.705Z,1020.36
2017-05-17T07:27:05.290Z,1020.28
2017-05-17T07:28:17.834Z,1020.28
2017-05-17T07:29:30.418Z,1020.24
2017-05-17T07:30:42.364Z,1020.26
2017-05-17T07:31:54.910Z,1020.24
2017-05-17T07:33:07.463Z,1020.29
2017-05-17T07:34:19.729Z,1020.28
2017-05-17T07:35:32.338Z,1020.24
2017-05-17T07:36:44.880Z,1020.32
2017-05-17T07:37:57.451Z,1020.28
2017-05-17T07:39:10.013Z,1020.21
2017-05-17T07:40:22.592Z,1020.19
2017-05-17T07:41:35.164Z,1020.15
2017-05-17T07:42:47.701Z,1020.18
2017-05-17T07:44:00.272Z,1020.12
2017-05-17T07:45:12.215Z,1020.1
2017-05-17T07:46:24.468Z,1020.12
2017-05-17T07:47:37.023Z,1020.14
2017-05-17T07:48:49.564Z,1020.14
2017-05-17T07:50:02.149Z,1020.16
2017-05-17T07:51:14.409Z,1020.16
2017-05-17T07:52:26.977Z,1020.19
2017-05-17T07:53:39.536Z,1020.14
2017-05-17T07:54:52.091Z,1020.08
2017-05-17T07:56:04.033Z,1020.09
2017-05-17T07:57:16.598Z,1020.09
2017-05-17T07:58:29.154Z,1020.1
2017-05-17T07:59:41.369Z,1020.07
2017-05-17T08:00:53.944Z,1020.02
2017-05-17T08:02:06.468Z,1020.02
2017-05-17T08:03:18.728Z,1020.07
2017-05-17T08:04:31.285Z,1020.04
2017-05-17T08:05:43.554Z,1020.02
2017-05-17T08:06:56.120Z,1020.02
2017-05-17T08:08:08.698Z,1019.98
2017-05-17T08:09:20.990Z,1020
2017-05-17T08:10:33.536Z,1020
2017-05-17T08:11:46.083Z,1020
2017-05-17T08:12:58.649Z,1020
2017-05-17T08:14:11.198Z,1020.05
2017-05-17T08:15:23.778Z,1019.99
2017-05-17T08:16:36.341Z,1019.96
2017-05-17T08:17:49.157Z,1019.97
2017-05-17T08:19:01.754Z,1019.93
2017-05-17T08:20:14.030Z,1019.98
2017-05-17T08:21:26.577Z,1019.93
2017-05-17T08:22:39.121Z,1019.92
2017-05-17T08:23:51.391Z,1019.93
2017-05-17T08:25:03.683Z,1019.91
2017-05-17T08:26:16.229Z,1019.89
2017-05-17T08:27:28.779Z,1019.84
2017-05-17T08:28:41.351Z,1019.8
2017-05-17T08:29:53.598Z,1019.79
2017-05-17T08:31:05.571Z,1019.85
2017-05-17T08:32:17.816Z,1019.89
2017-05-17T08:33:30.087Z,1019.87
2017-05-17T08:34:42.657Z,1019.84
2017-05-17T08:35:55.228Z,1019.86
2017-05-17T08:37:07.500Z,1019.83
2017-05-17T08:38:20.048Z,1019.82
2017-05-17T08:39:32.638Z,1019.8
2017-05-17T08:40:44.909Z,1019.77
2017-05-17T08:41:57.534Z,1019.76
2017-05-17T08:43:09.507Z,1019.74
2017-05-17T08:44:22.064Z,1019.71
2017-05-17T08:45:34.614Z,1019.64
2017-05-17T08:46:46.893Z,1019.67
2017-05-17T08:47:59.155Z,1019.68
2017-05-17T08:49:11.710Z,1019.65
2017-05-17T08:50:24.305Z,1019.65
2017-05-17T08:51:36.865Z,1019.66
2017-05-17T08:52:49.414Z,1019.65
2017-05-17T08:54:01.972Z,1019.62
2017-05-17T08:55:14.214Z,1019.62
2017-05-17T08:56:26.781Z,1019.64
2017-05-17T08:57:39.356Z,1019.56
2017-05-17T08:58:51.998Z,1019.63
2017-05-17T09:00:04.298Z,1019.58
2017-05-17T09:01:16.259Z,1019.52
2017-05-17T09:02:28.779Z,1019.49
2017-05-17T09:03:41.337Z,1019.47
2017-05-17T09:04:53.907Z,1019.46
2017-05-17T09:06:06.147Z,1019.48
2017-05-17T09:07:18.375Z,1019.45
2017-05-17T09:08:30.644Z,1019.42
2017-05-17T09:09:42.982Z,1019.43
2017-05-17T09:10:55.536Z,1019.43
2017-05-17T09:12:07.831Z,1019.44
2017-05-17T09:13:19.778Z,1019.38
2017-05-17T09:14:32.324Z,1019.32
2017-05-17T09:15:44.583Z,1019.34
2017-05-17T09:16:56.540Z,1019.31
2017-05-17T09:18:08.505Z,1019.31
2017-05-17T09:19:21.099Z,1019.31
2017-05-17T09:20:33.379Z,1019.27
2017-05-17T09:21:45.941Z,1019.25
2017-05-17T09:22:58.508Z,1019.22
2017-05-17T09:24:10.782Z,1019.21
2017-05-17T09:25:22.761Z,1019.14
2017-05-17T09:26:35.032Z,1019.2
2017-05-17T09:27:47.302Z,1019.22
2017-05-17T09:28:59.871Z,1019.2
2017-05-17T09:30:12.420Z,1019.23
2017-05-17T09:31:24.983Z,1019.23
2017-05-17T09:32:37.542Z,1019.16
2017-05-17T09:33:49.800Z,1019.08
2017-05-17T09:35:02.374Z,1019.08
2017-05-17T09:36:14.948Z,1019.1
2017-05-17T09:37:27.491Z,1019.06
2017-05-17T09:38:40.071Z,1019.05
2017-05-17T09:39:52.604Z,1019.05
2017-05-17T09:41:04.865Z,1019.12
2017-05-17T09:42:17.100Z,1019.07
2017-05-17T09:43:29.369Z,1019.1
2017-05-17T09:44:41.946Z,1019.07
2017-05-17T09:45:54.516Z,1019.05
2017-05-17T09:47:07.088Z,1019.06
2017-05-17T09:48:19.350Z,1019.07
2017-05-17T09:49:31.897Z,1019.04
2017-05-17T09:50:44.451Z,1018.96
2017-05-17T09:51:56.742Z,1019.03
2017-05-17T09:53:08.691Z,1018.98
2017-05-17T09:54:21.255Z,1018.99
2017-05-17T09:55:33.805Z,1019
2017-05-17T09:56:46.379Z,1018.98
2017-05-17T09:57:58.668Z,1019.03
2017-05-17T09:59:10.942Z,1018.98
2017-05-17T10:00:23.231Z,1018.95
2017-05-17T10:01:35.488Z,1018.95
2017-05-17T10:02:47.455Z,1018.96
2017-05-17T10:03:59.703Z,1018.89
2017-05-17T10:05:11.969Z,1018.88
2017-05-17T10:06:24.525Z,1018.88
2017-05-17T10:07:37.118Z,1018.79
2017-05-17T10:08:49.666Z,1018.88
2017-05-17T10:10:02.274Z,1018.83
2017-05-17T10:11:13.951Z,1018.85
2017-05-17T10:12:26.221Z,1018.83
2017-05-17T10:13:38.798Z,1018.82
2017-05-17T10:14:51.381Z,1018.86
2017-05-17T10:16:03.636Z,1018.82
2017-05-17T10:17:15.316Z,1018.81
2017-05-17T10:18:27.861Z,1018.82
2017-05-17T10:19:40.420Z,1018.81
2017-05-17T10:20:52.700Z,1018.75
2017-05-17T10:22:04.958Z,1018.76
2017-05-17T10:23:17.539Z,1018.69
2017-05-17T10:24:29.814Z,1018.7
2017-05-17T10:25:42.383Z,1018.65
2017-05-17T10:26:54.928Z,1018.61
2017-05-17T10:28:07.196Z,1018.59
2017-05-17T10:29:19.444Z,1018.58
2017-05-17T10:30:32.032Z,1018.54
2017-05-17T10:31:44.585Z,1018.57
2017-05-17T10:32:56.828Z,1018.54
2017-05-17T10:34:09.384Z,1018.52
2017-05-17T10:35:21.653Z,1018.52
2017-05-17T10:36:34.217Z,1018.47
2017-05-17T10:37:45.891Z,1018.47
2017-05-17T10:38:58.462Z,1018.43
2017-05-17T10:40:11.007Z,1018.43
2017-05-17T10:41:23.004Z,1018.4
2017-05-17T10:42:35.575Z,1018.45
2017-05-17T10:43:48.141Z,1018.42
2017-05-17T10:45:00.413Z,1018.39
2017-05-17T10:46:12.690Z,1018.41
2017-05-17T10:47:25.230Z,1018.41
2017-05-17T10:48:37.504Z,1018.33
2017-05-17T10:49:50.067Z,1018.34
2017-05-17T10:51:02.659Z,1018.33
2017-05-17T10:52:15.216Z,1018.33
2017-05-17T10:53:27.789Z,1018.34
2017-05-17T10:54:40.360Z,1018.31
2017-05-17T10:55:52.626Z,1018.31
2017-05-17T10:57:05.172Z,1018.3
2017-05-17T10:58:17.145Z,1018.29
2017-05-17T10:59:29.718Z,1018.21
2017-05-17T11:00:41.967Z,1018.23
2017-05-17T11:01:54.536Z,1018.25
2017-05-17T11:03:07.088Z,1018.24
2017-05-17T11:04:19.668Z,1018.23
2017-05-17T11:05:32.194Z,1018.23
2017-05-17T11:06:44.765Z,1018.19
2017-05-17T11:07:57.338Z,1018.19
2017-05-17T11:09:09.928Z,1018.19
2017-05-17T11:10:22.477Z,1018.18
2017-05-17T11:11:34.754Z,1018.15
2017-05-17T11:12:47.322Z,1018.07
2017-05-17T11:13:59.307Z,1018.1
2017-05-17T11:15:11.566Z,1018.09
2017-05-17T11:16:23.832Z,1018.05
2017-05-17T11:17:36.428Z,1018.01
2017-05-17T11:18:48.728Z,1018.04
2017-05-17T11:20:00.990Z,1017.99
2017-05-17T11:21:13.550Z,1017.99
2017-05-17T11:22:25.840Z,1018.04
2017-05-17T11:23:38.117Z,1018
2017-05-17T11:24:50.078Z,1018.01
2017-05-17T11:26:02.627Z,1018
2017-05-17T11:27:14.622Z,1017.98
2017-05-17T11:28:27.217Z,1017.95
2017-05-17T11:29:39.791Z,1017.92
2017-05-17T11:30:51.778Z,1017.88
2017-05-17T11:32:04.034Z,1017.88
2017-05-17T11:33:16.279Z,1017.85
2017-05-17T11:34:28.853Z,1017.85
2017-05-17T11:35:41.408Z,1017.82
2017-05-17T11:36:53.955Z,1017.83
2017-05-17T11:38:06.508Z,1017.83
2017-05-17T11:39:19.082Z,1017.8
2017-05-17T11:40:31.678Z,1017.78
2017-05-17T11:41:43.926Z,1017.72
2017-05-17T11:42:56.494Z,1017.7
2017-05-17T11:44:08.444Z,1017.71
2017-05-17T11:45:21.042Z,1017.7
2017-05-17T11:46:33.308Z,1017.67
2017-05-17T11:47:45.881Z,1017.67
2017-05-17T11:48:58.150Z,1017.7
2017-05-17T11:50:10.735Z,1017.68
2017-05-17T11:51:23.292Z,1017.66
2017-05-17T11:52:35.537Z,1017.63
2017-05-17T11:53:48.105Z,1017.69
2017-05-17T11:55:00.647Z,1017.65
2017-05-17T11:56:12.927Z,1017.63
2017-05-17T11:57:25.196Z,1017.64
2017-05-17T11:58:37.763Z,1017.6
2017-05-17T11:59:49.435Z,1017.59
2017-05-17T12:01:01.706Z,1017.6
2017-05-17T12:02:13.959Z,1017.52
2017-05-17T12:03:25.951Z,1017.55
2017-05-17T12:04:38.510Z,1017.55
2017-05-17T12:05:50.518Z,1017.44
2017-05-17T12:07:02.788Z,1017.4
2017-05-17T12:08:15.062Z,1017.31
2017-05-17T12:09:27.607Z,1017.42
2017-05-17T12:10:40.217Z,1017.45
2017-05-17T12:11:52.747Z,1017.45
2017-05-17T12:13:05.318Z,1017.43
2017-05-17T12:14:17.588Z,1017.44
2017-05-17T12:15:29.849Z,1017.44
2017-05-17T12:16:42.406Z,1017.45
2017-05-17T12:17:54.973Z,1017.4
2017-05-17T12:19:07.252Z,1017.37
2017-05-17T12:20:19.794Z,1017.4
2017-05-17T12:21:32.366Z,1017.39
2017-05-17T12:22:44.916Z,1017.34
2017-05-17T12:23:57.211Z,1017.32
2017-05-17T12:25:08.877Z,1017.35
2017-05-17T12:26:21.166Z,1017.29
2017-05-17T12:27:33.433Z,1017.24
2017-05-17T12:28:45.987Z,1017.31
2017-05-17T12:29:58.562Z,1017.27
2017-05-17T12:31:10.869Z,1017.25
2017-05-17T12:32:22.875Z,1017.25
2017-05-17T12:33:35.446Z,1017.26
2017-05-17T12:34:48.017Z,1017.26
2017-05-17T12:36:00.013Z,1017.23
2017-05-17T12:37:12.608Z,1017.23
2017-05-17T12:38:25.405Z,1017.25
2017-05-17T12:39:37.675Z,1017.22
2017-05-17T12:40:50.250Z,1017.21
2017-05-17T12:42:02.850Z,1017.15
2017-05-17T12:43:14.865Z,1017.12
2017-05-17T12:44:27.463Z,1017.16
2017-05-17T12:45:40.036Z,1017.15
2017-05-17T12:46:52.303Z,1017.14
2017-05-17T12:48:04.867Z,1017.1
2017-05-17T12:49:17.135Z,1017.1
2017-05-17T12:50:29.663Z,1017.11
2017-05-17T12:51:42.256Z,1017.07
2017-05-17T12:52:54.823Z,1017.04
2017-05-17T12:54:07.082Z,1017.05
2017-05-17T12:55:19.347Z,1017.07
2017-05-17T12:56:31.292Z,1017.05
2017-05-17T12:57:43.530Z,1016.98
2017-05-17T12:58:56.089Z,1016.97
2017-05-17T13:00:08.654Z,1016.99
2017-05-17T13:01:20.930Z,1016.95
2017-05-17T13:02:33.474Z,1016.93
2017-05-17T13:03:46.047Z,1016.9
2017-05-17T13:04:57.721Z,1016.88
2017-05-17T13:06:10.284Z,1016.81
2017-05-17T13:07:22.558Z,1016.87
2017-05-17T13:08:34.827Z,1016.84
2017-05-17T13:09:47.077Z,1016.79
2017-05-17T13:10:59.665Z,1016.75
2017-05-17T13:12:12.217Z,1016.76
2017-05-17T13:13:24.203Z,1016.77
2017-05-17T13:14:36.773Z,1016.57
2017-05-17T13:15:49.330Z,1016.72
2017-05-17T13:17:01.898Z,1016.63
2017-05-17T13:18:14.161Z,1016.57
2017-05-17T13:19:26.707Z,1016.55
2017-05-17T13:20:39.240Z,1016.67
2017-05-17T13:21:51.510Z,1016.66
2017-05-17T13:23:03.786Z,1016.62
2017-05-17T13:24:16.356Z,1016.55
2017-05-17T13:25:28.915Z,1016.53
2017-05-17T13:26:41.498Z,1016.54
2017-05-17T13:27:53.761Z,1016.59
2017-05-17T13:29:06.324Z,1016.57
2017-05-17T13:30:18.858Z,1016.54
2017-05-17T13:31:31.444Z,1016.47
2017-05-17T13:32:44.013Z,1016.49
2017-05-17T13:33:56.287Z,1016.52
2017-05-17T13:35:08.864Z,1016.4
2017-05-17T13:36:21.116Z,1016.48
2017-05-17T13:37:33.674Z,1016.46
2017-05-17T13:38:46.477Z,1016.43
2017-05-17T13:39:59.045Z,1016.39
2017-05-17T13:41:11.619Z,1016.39
2017-05-17T13:42:23.616Z,1016.29
2017-05-17T13:43:36.184Z,1016.29
2017-05-17T13:44:48.457Z,1016.26
2017-05-17T13:46:00.729Z,1016.21
2017-05-17T13:47:13.299Z,1016.25
2017-05-17T13:48:25.867Z,1016.25
2017-05-17T13:49:38.434Z,1016.22
2017-05-17T13:50:50.963Z,1016.14
2017-05-17T13:52:03.511Z,1016.12
2017-05-17T13:53:15.768Z,1016.15
2017-05-17T13:54:28.343Z,1016.11
2017-05-17T13:55:40.617Z,1016.13
2017-05-17T13:56:53.191Z,1016.13
2017-05-17T13:58:05.756Z,1016.07
2017-05-17T13:59:17.734Z,1016.07
2017-05-17T14:00:30.000Z,1016.07
2017-05-17T14:01:42.546Z,1016.06
2017-05-17T14:02:55.120Z,1015.98
2017-05-17T14:04:07.059Z,1016.02
2017-05-17T14:05:19.338Z,1015.98
2017-05-17T14:06:31.880Z,1015.98
2017-05-17T14:07:43.826Z,1015.96
2017-05-17T14:08:56.118Z,1015.86
2017-05-17T14:10:08.393Z,1015.89
2017-05-17T14:11:20.960Z,1015.86
2017-05-17T14:12:33.513Z,1015.8
2017-05-17T14:13:46.084Z,1015.76
2017-05-17T14:14:58.052Z,1015.77
2017-05-17T14:16:10.629Z,1015.67
2017-05-17T14:17:22.597Z,1015.66
2017-05-17T14:18:34.595Z,1015.65
2017-05-17T14:19:47.164Z,1015.56
2017-05-17T14:20:59.752Z,1015.45
2017-05-17T14:22:12.302Z,1015.51
2017-05-17T14:23:24.551Z,1015.69
2017-05-17T14:24:37.111Z,1015.73
2017-05-17T14:25:49.737Z,1015.75
2017-05-17T14:27:02.307Z,1015.76
2017-05-17T14:28:14.873Z,1015.68
2017-05-17T14:29:27.158Z,1015.54
2017-05-17T14:30:39.415Z,1015.55
2017-05-17T14:31:51.944Z,1015.54
2017-05-17T14:33:04.217Z,1015.58
2017-05-17T14:34:16.247Z,1015.68
2017-05-17T14:35:28.804Z,1015.67
2017-05-17T14:36:41.056Z,1015.69
2017-05-17T14:37:53.895Z,1015.59
2017-05-17T14:39:06.470Z,1015.53